createdAt,value
2019-06-20T00:00:41.781Z,17.20
2019-06-20T00:03:16.468Z,17.20
2019-06-20T00:05:54.081Z,17.10
2019-06-20T00:08:28.350Z,17.10
2019-06-20T00:11:02.743Z,17.10
2019-06-20T00:13:37.105Z,17.20
2019-06-20T00:16:11.769Z,17.20
2019-06-20T00:18:52.089Z,17.10
2019-06-20T00:21:26.445Z,17.10
2019-06-20T00:24:00.822Z,17.10
2019-06-20T00:26:47.125Z,17.00
2019-06-20T00:29:21.445Z,17.00
2019-06-20T00:31:55.665Z,17.00
2019-06-20T00:34:29.884Z,17.00
2019-06-20T00:37:04.177Z,17.00
2019-06-20T00:39:38.489Z,16.90
2019-06-20T00:42:22.413Z,17.00
2019-06-20T00:44:57.881Z,17.00
2019-06-20T00:47:32.184Z,17.00
2019-06-20T00:50:06.907Z,17.10
2019-06-20T00:52:44.509Z,17.10
2019-06-20T00:55:22.695Z,17.10
2019-06-20T00:57:57.001Z,17.20
2019-06-20T01:00:31.325Z,17.10
2019-06-20T01:03:06.614Z,17.00
2019-06-20T01:05:40.897Z,17.00
2019-06-20T01:08:15.209Z,16.90
2019-06-20T01:10:49.577Z,16.90
2019-06-20T01:13:33.184Z,16.90
2019-06-20T01:15:59.918Z,16.90
2019-06-20T01:18:40.933Z,16.90
2019-06-20T01:21:17.093Z,16.90
2019-06-20T01:23:51.405Z,16.90
2019-06-20T01:26:25.649Z,16.90
2019-06-20T01:29:03.731Z,16.80
2019-06-20T01:31:38.062Z,16.80
2019-06-20T01:34:12.334Z,16.80
2019-06-20T01:36:58.432Z,16.80
2019-06-20T01:39:32.797Z,16.80
2019-06-20T01:42:12.299Z,16.70
2019-06-20T01:44:46.537Z,16.70
2019-06-20T01:47:20.861Z,16.70
2019-06-20T01:50:00.878Z,16.80
2019-06-20T01:52:35.137Z,17.00
2019-06-20T01:55:09.789Z,17.10
2019-06-20T01:57:47.201Z,17.20
2019-06-20T02:00:40.902Z,17.30
2019-06-20T02:03:15.773Z,17.30
2019-06-20T02:05:51.026Z,17.20
2019-06-20T02:08:25.301Z,17.10
2019-06-20T02:10:59.627Z,17.10
2019-06-20T02:13:33.908Z,17.00
2019-06-20T02:16:08.274Z,16.90
2019-06-20T02:18:42.610Z,16.90
2019-06-20T02:21:16.981Z,16.90
2019-06-20T02:23:51.349Z,16.90
2019-06-20T02:26:41.814Z,16.90
2019-06-20T02:29:16.278Z,16.80
2019-06-20T02:31:50.550Z,16.70
2019-06-20T02:34:24.764Z,16.70
2019-06-20T02:36:59.083Z,16.70
2019-06-20T02:39:33.457Z,16.60
2019-06-20T02:42:10.908Z,16.50
2019-06-20T02:44:45.169Z,16.40
2019-06-20T02:47:20.533Z,16.40
2019-06-20T02:49:54.817Z,16.40
2019-06-20T02:52:29.097Z,16.50
2019-06-20T02:55:03.537Z,16.50
2019-06-20T02:57:37.939Z,16.50
2019-06-20T03:00:13.027Z,16.50
2019-06-20T03:02:47.389Z,16.50
2019-06-20T03:05:21.835Z,16.50
2019-06-20T03:07:57.194Z,16.50
2019-06-20T03:10:31.568Z,16.50
2019-06-20T03:13:09.578Z,16.40
2019-06-20T03:15:44.014Z,16.40
2019-06-20T03:18:18.393Z,16.40
2019-06-20T03:20:52.741Z,16.40
2019-06-20T03:23:27.074Z,16.40
2019-06-20T03:26:03.589Z,16.50
2019-06-20T03:28:37.821Z,16.80
2019-06-20T03:31:12.162Z,17.60
2019-06-20T03:33:46.414Z,18.60
2019-06-20T03:36:20.657Z,18.30
2019-06-20T03:38:55.001Z,17.90
2019-06-20T03:44:05.261Z,17.40
2019-06-20T03:46:39.581Z,17.20
2019-06-20T03:49:13.875Z,17.10
2019-06-20T03:51:51.484Z,17.40
2019-06-20T03:54:27.941Z,18.80
2019-06-20T03:57:02.269Z,20.20
2019-06-20T03:59:39.748Z,20.80
2019-06-20T04:02:14.092Z,21.60
2019-06-20T04:04:48.276Z,22.00
2019-06-20T04:07:22.525Z,22.30
2019-06-20T04:09:56.886Z,22.70
2019-06-20T04:12:31.477Z,23.20
2019-06-20T04:15:18.539Z,24.00
2019-06-20T04:17:42.649Z,24.60
2019-06-20T04:20:16.815Z,25.10
2019-06-20T04:22:50.774Z,25.30
2019-06-20T04:25:25.285Z,25.50
2019-06-20T04:28:02.423Z,25.60
2019-06-20T04:30:36.509Z,25.00
2019-06-20T04:33:10.613Z,24.80
2019-06-20T04:35:50.909Z,24.70
2019-06-20T04:38:24.981Z,24.00
2019-06-20T04:41:01.971Z,23.10
2019-06-20T04:43:40.405Z,22.20
2019-06-20T04:46:33.037Z,21.50
2019-06-20T04:49:07.018Z,22.10
2019-06-20T04:51:59.675Z,23.80
2019-06-20T04:54:33.769Z,24.70
2019-06-20T04:57:07.804Z,26.10
2019-06-20T04:59:41.896Z,27.20
2019-06-20T05:02:17.516Z,27.80
2019-06-20T05:04:51.488Z,28.50
2019-06-20T05:07:25.371Z,28.70
2019-06-20T05:10:01.425Z,29.00
2019-06-20T05:12:45.589Z,29.30
2019-06-20T05:15:19.663Z,29.10
2019-06-20T05:17:53.676Z,28.10
2019-06-20T05:20:28.084Z,26.00
2019-06-20T05:23:02.398Z,25.40
2019-06-20T05:25:36.313Z,25.50
2019-06-20T05:28:10.333Z,25.90
2019-06-20T05:30:44.386Z,26.30
2019-06-20T05:33:18.372Z,25.70
2019-06-20T05:35:52.261Z,25.20
2019-06-20T05:38:26.317Z,24.90
2019-06-20T05:41:00.309Z,25.50
2019-06-20T05:43:34.349Z,25.70
2019-06-20T05:46:11.062Z,25.60
2019-06-20T05:49:04.694Z,25.20
2019-06-20T05:51:39.800Z,26.60
2019-06-20T05:54:13.965Z,27.50
2019-06-20T05:57:04.765Z,28.20
2019-06-20T05:59:38.734Z,28.50
2019-06-20T06:02:12.723Z,28.60
2019-06-20T06:04:46.801Z,28.30
2019-06-20T06:07:27.099Z,28.00
2019-06-20T06:10:04.009Z,27.50
2019-06-20T06:12:37.004Z,27.30
2019-06-20T06:15:11.752Z,27.50
2019-06-20T06:20:31.157Z,27.10
2019-06-20T06:23:05.212Z,26.20
2019-06-20T06:25:41.609Z,25.20
2019-06-20T06:28:15.661Z,24.80
2019-06-20T06:31:04.072Z,24.40
2019-06-20T06:33:39.517Z,25.00
2019-06-20T06:36:13.873Z,26.00
2019-06-20T06:38:47.881Z,26.60
2019-06-20T06:41:21.867Z,27.10
2019-06-20T06:43:55.848Z,27.50
2019-06-20T06:46:43.699Z,26.60
2019-06-20T06:49:08.612Z,25.80
2019-06-20T06:51:44.332Z,25.20
2019-06-20T06:54:18.280Z,24.30
2019-06-20T06:56:52.588Z,23.90
2019-06-20T06:59:26.480Z,23.80
2019-06-20T07:02:00.686Z,23.90
2019-06-20T07:04:34.930Z,23.60
2019-06-20T07:07:09.288Z,23.40
2019-06-20T07:09:43.617Z,23.30
2019-06-20T07:12:17.968Z,23.60
2019-06-20T07:14:52.293Z,24.40
2019-06-20T07:17:26.556Z,25.40
2019-06-20T07:20:00.892Z,26.60
2019-06-20T07:22:35.445Z,27.40
2019-06-20T07:25:10.088Z,27.70
2019-06-20T07:27:44.112Z,27.70
2019-06-20T07:30:18.616Z,27.70
2019-06-20T07:33:04.686Z,28.90
2019-06-20T07:35:41.767Z,28.90
2019-06-20T07:38:14.492Z,28.70
2019-06-20T07:40:48.452Z,28.70
2019-06-20T07:43:22.441Z,27.30
2019-06-20T07:46:02.576Z,26.20
2019-06-20T07:48:32.468Z,25.50
2019-06-20T07:51:06.357Z,25.50
2019-06-20T07:53:40.352Z,26.10
2019-06-20T07:56:16.867Z,27.10
2019-06-20T07:58:51.265Z,27.60
2019-06-20T08:01:25.678Z,27.60
2019-06-20T08:04:01.170Z,27.40
2019-06-20T08:06:35.113Z,26.80
2019-06-20T08:09:09.575Z,26.40
2019-06-20T08:11:43.599Z,26.30
2019-06-20T08:14:17.695Z,26.50
2019-06-20T08:16:51.725Z,26.30
2019-06-20T08:19:41.237Z,26.80
2019-06-20T08:22:15.194Z,26.60
2019-06-20T08:24:53.230Z,26.80
2019-06-20T08:27:45.188Z,27.10
2019-06-20T08:30:30.550Z,27.50
2019-06-20T08:33:07.644Z,27.90
2019-06-20T08:35:39.095Z,28.00
2019-06-20T08:38:15.848Z,27.30
2019-06-20T08:40:49.815Z,26.10
2019-06-20T08:43:23.817Z,25.60
2019-06-20T08:46:12.460Z,25.30
2019-06-20T08:48:46.380Z,25.80
2019-06-20T08:51:20.744Z,26.50
2019-06-20T08:54:01.340Z,26.70
2019-06-20T08:56:36.695Z,26.20
2019-06-20T08:59:24.489Z,26.20
2019-06-20T09:04:36.022Z,25.90
2019-06-20T09:07:10.018Z,25.80
2019-06-20T09:09:43.949Z,25.90
2019-06-20T09:12:20.281Z,25.60
2019-06-20T09:14:55.156Z,25.50
2019-06-20T09:17:30.976Z,25.40
2019-06-20T09:20:13.687Z,25.10
2019-06-20T09:22:48.128Z,24.90
2019-06-20T09:28:14.079Z,25.30
2019-06-20T09:30:48.434Z,25.40
2019-06-20T09:33:22.565Z,25.00
2019-06-20T09:36:03.987Z,24.50
2019-06-20T09:38:38.576Z,24.30
2019-06-20T09:41:12.885Z,24.20
2019-06-20T09:43:47.328Z,24.10
2019-06-20T09:46:21.684Z,24.30
2019-06-20T09:49:00.008Z,25.00
2019-06-20T09:51:34.313Z,25.90
2019-06-20T09:54:14.248Z,26.60
2019-06-20T09:56:50.293Z,26.70
2019-06-20T09:59:27.835Z,26.70
2019-06-20T10:02:00.199Z,26.10
2019-06-20T10:04:46.111Z,25.70
2019-06-20T10:07:21.163Z,25.50
2019-06-20T10:09:56.333Z,25.20
2019-06-20T10:12:30.834Z,25.20
2019-06-20T10:15:27.296Z,24.90
2019-06-20T10:18:01.359Z,25.00
2019-06-20T10:20:53.014Z,24.90
2019-06-20T10:23:27.448Z,25.20
2019-06-20T10:26:46.667Z,25.00
2019-06-20T10:29:21.811Z,25.60
2019-06-20T10:32:14.105Z,26.30
2019-06-20T10:34:48.435Z,26.10
2019-06-20T10:37:29.648Z,26.50
2019-06-20T10:40:07.864Z,26.40
2019-06-20T10:42:41.948Z,26.30
2019-06-20T10:45:20.036Z,25.80
2019-06-20T10:47:55.119Z,24.50
2019-06-20T10:50:29.647Z,24.30
2019-06-20T10:53:10.158Z,24.50
2019-06-20T10:55:51.731Z,25.10
2019-06-20T11:01:07.563Z,27.60
2019-06-20T11:03:41.999Z,26.60
2019-06-20T11:06:16.340Z,26.10
2019-06-20T11:08:50.624Z,26.00
2019-06-20T11:11:24.557Z,25.30
2019-06-20T11:13:58.593Z,25.40
2019-06-20T11:16:49.198Z,24.60
2019-06-20T11:19:26.153Z,24.10
2019-06-20T11:22:00.473Z,24.90
2019-06-20T11:24:34.767Z,25.60
2019-06-20T11:27:17.494Z,26.20
2019-06-20T11:29:51.608Z,26.30
2019-06-20T11:32:25.914Z,27.20
2019-06-20T11:35:00.312Z,27.20
2019-06-20T11:37:48.363Z,26.50
2019-06-20T11:40:22.825Z,26.20
2019-06-20T11:42:57.081Z,26.30
2019-06-20T11:45:31.571Z,26.20
2019-06-20T11:48:05.608Z,26.70
2019-06-20T11:50:42.392Z,26.80
2019-06-20T11:53:23.175Z,26.10
2019-06-20T11:55:57.560Z,25.70
2019-06-20T11:58:31.963Z,25.70
2019-06-20T12:01:08.820Z,25.90
2019-06-20T12:03:44.538Z,25.80
2019-06-20T12:06:18.996Z,25.10
2019-06-20T12:08:53.229Z,25.60
2019-06-20T12:11:27.453Z,25.80
2019-06-20T12:14:01.784Z,25.70
2019-06-20T12:16:40.816Z,26.20
2019-06-20T12:19:15.463Z,25.80
2019-06-20T12:21:49.768Z,26.50
2019-06-20T12:24:28.129Z,26.50
2019-06-20T12:27:02.293Z,26.30
2019-06-20T12:29:37.735Z,26.10
2019-06-20T12:32:12.557Z,26.20
2019-06-20T12:34:46.641Z,26.40
2019-06-20T12:37:20.578Z,26.10
2019-06-20T12:40:00.328Z,26.20
2019-06-20T12:42:34.572Z,26.00
2019-06-20T12:45:09.228Z,26.10
2019-06-20T12:47:43.777Z,25.70
2019-06-20T12:50:18.866Z,25.60
2019-06-20T12:52:58.708Z,26.00
2019-06-20T12:55:32.887Z,26.40
2019-06-20T12:58:06.940Z,26.60
2019-06-20T13:00:42.791Z,26.20
2019-06-20T13:03:16.773Z,26.70
2019-06-20T13:05:50.836Z,26.30
2019-06-20T13:08:24.936Z,26.00
2019-06-20T13:10:58.907Z,26.00
2019-06-20T13:13:32.791Z,25.70
2019-06-20T13:16:06.833Z,26.00
2019-06-20T13:18:41.373Z,26.10
2019-06-20T13:21:19.060Z,26.20
2019-06-20T13:23:55.159Z,25.70
2019-06-20T13:26:32.914Z,25.20
2019-06-20T13:29:07.292Z,24.90
2019-06-20T13:31:59.414Z,24.90
2019-06-20T13:34:18.723Z,24.80
2019-06-20T13:36:52.952Z,24.50
2019-06-20T13:39:27.220Z,24.20
2019-06-20T13:42:00.436Z,24.00
2019-06-20T13:44:44.267Z,23.50
2019-06-20T13:50:27.755Z,23.20
2019-06-20T13:53:02.020Z,22.90
2019-06-20T13:55:42.381Z,22.80
2019-06-20T13:58:33.091Z,22.90
2019-06-20T14:04:12.523Z,22.70
2019-06-20T14:06:47.342Z,22.90
2019-06-20T14:09:21.639Z,23.70
2019-06-20T14:11:58.359Z,24.30
2019-06-20T14:14:32.772Z,24.80
2019-06-20T14:17:07.116Z,25.20
2019-06-20T14:19:43.418Z,24.60
2019-06-20T14:22:19.838Z,24.50
2019-06-20T14:25:00.511Z,24.70
2019-06-20T14:27:47.265Z,24.50
2019-06-20T14:30:23.121Z,24.70
2019-06-20T14:32:58.469Z,24.40
2019-06-20T14:35:32.663Z,24.30
2019-06-20T14:38:26.907Z,23.90
2019-06-20T14:41:00.975Z,24.10
2019-06-20T14:43:35.415Z,24.00
2019-06-20T14:46:09.895Z,24.00
2019-06-20T14:48:47.363Z,23.50
2019-06-20T14:51:22.699Z,24.00
2019-06-20T14:54:02.012Z,24.40
2019-06-20T14:56:36.235Z,24.10
2019-06-20T14:59:10.945Z,24.30
2019-06-20T15:01:46.394Z,24.20
2019-06-20T15:04:20.839Z,24.20
2019-06-20T15:06:55.152Z,24.00
2019-06-20T15:09:38.389Z,24.10
2019-06-20T15:12:12.568Z,23.90
2019-06-20T15:14:48.350Z,23.90
2019-06-20T15:17:29.190Z,23.90
2019-06-20T15:20:22.400Z,23.60
2019-06-20T15:22:56.697Z,23.50
2019-06-20T15:25:31.191Z,23.20
2019-06-20T15:28:05.533Z,23.40
2019-06-20T15:30:39.751Z,23.60
2019-06-20T15:33:14.632Z,23.50
2019-06-20T15:35:50.661Z,23.40
2019-06-20T15:38:24.836Z,23.30
2019-06-20T15:40:59.396Z,23.10
2019-06-20T15:43:33.585Z,23.10
2019-06-20T15:46:07.780Z,22.90
2019-06-20T15:48:42.124Z,23.10
2019-06-20T15:51:16.563Z,22.90
2019-06-20T15:53:50.819Z,22.80
2019-06-20T15:56:25.045Z,22.90
2019-06-20T15:59:00.215Z,22.70
2019-06-20T16:01:34.488Z,22.60
2019-06-20T16:04:08.799Z,22.40
2019-06-20T16:06:50.861Z,22.40
2019-06-20T16:09:25.162Z,22.40
2019-06-20T16:11:59.526Z,22.30
2019-06-20T16:14:42.327Z,22.40
2019-06-20T16:17:25.108Z,22.40
2019-06-20T16:19:59.264Z,22.50
2019-06-20T16:22:33.515Z,22.50
2019-06-20T16:25:08.466Z,22.50
2019-06-20T16:27:45.716Z,22.50
2019-06-20T16:33:25.157Z,22.60
2019-06-20T16:35:52.488Z,22.50
2019-06-20T16:38:26.886Z,22.50
2019-06-20T16:41:01.591Z,22.50
2019-06-20T16:43:36.095Z,22.50
2019-06-20T16:46:11.234Z,22.60
2019-06-20T16:48:45.856Z,22.40
2019-06-20T16:51:20.187Z,22.40
2019-06-20T16:53:54.560Z,22.30
2019-06-20T16:56:43.303Z,22.40
2019-06-20T16:59:17.611Z,22.40
2019-06-20T17:01:52.383Z,22.30
2019-06-20T17:04:27.083Z,22.20
2019-06-20T17:07:01.243Z,22.20
2019-06-20T17:09:35.615Z,22.10
2019-06-20T17:12:11.269Z,22.10
2019-06-20T17:14:45.940Z,22.00
2019-06-20T17:17:20.352Z,21.90
2019-06-20T17:19:54.659Z,21.80
2019-06-20T17:22:44.707Z,21.70
2019-06-20T17:25:19.907Z,21.70
2019-06-20T17:27:54.185Z,21.60
2019-06-20T17:30:28.623Z,21.60
2019-06-20T17:33:11.811Z,21.60
2019-06-20T17:36:18.347Z,21.60
2019-06-20T17:38:49.565Z,21.60
2019-06-20T17:41:23.921Z,21.60
2019-06-20T17:43:58.237Z,21.50
2019-06-20T17:46:32.427Z,21.40
2019-06-20T17:49:06.787Z,21.40
2019-06-20T17:51:44.923Z,21.40
2019-06-20T17:54:19.199Z,21.40
2019-06-20T17:57:16.055Z,21.30
2019-06-20T17:59:51.232Z,21.40
2019-06-20T18:02:37.452Z,21.40
2019-06-20T18:05:11.975Z,21.30
2019-06-20T18:07:46.395Z,21.20
2019-06-20T18:10:21.619Z,21.10
2019-06-20T18:12:56.720Z,21.00
2019-06-20T18:15:33.852Z,21.00
2019-06-20T18:18:07.041Z,20.90
2019-06-20T18:20:40.183Z,20.90
2019-06-20T18:23:46.403Z,20.80
2019-06-20T18:26:20.847Z,20.80
2019-06-20T18:28:55.060Z,20.80
2019-06-20T18:31:29.410Z,20.80
2019-06-20T18:34:29.155Z,20.70
2019-06-20T18:36:50.744Z,20.60
2019-06-20T18:39:48.499Z,20.60
2019-06-20T18:42:22.783Z,20.50
2019-06-20T18:44:58.305Z,20.40
2019-06-20T18:47:33.023Z,20.30
2019-06-20T18:50:07.851Z,20.20
2019-06-20T18:52:51.735Z,20.20
2019-06-20T18:55:18.779Z,20.10
2019-06-20T18:57:53.375Z,20.10
2019-06-20T19:00:34.782Z,20.00
2019-06-20T19:03:03.931Z,20.00
2019-06-20T19:05:38.256Z,19.90
2019-06-20T19:08:12.540Z,19.90
2019-06-20T19:10:46.907Z,19.70
2019-06-20T19:13:21.143Z,19.70
2019-06-20T19:16:18.395Z,19.60
2019-06-20T19:18:53.579Z,19.50
2019-06-20T19:21:27.936Z,19.40
2019-06-20T19:24:02.612Z,19.30
2019-06-20T19:26:36.919Z,19.30
2019-06-20T19:29:15.285Z,19.30
2019-06-20T19:31:49.551Z,19.20
2019-06-20T19:34:23.919Z,19.10
2019-06-20T19:37:11.311Z,19.00
2019-06-20T19:39:49.463Z,18.90
2019-06-20T19:42:25.249Z,18.90
2019-06-20T19:44:59.711Z,18.80
2019-06-20T19:47:36.819Z,18.70
2019-06-20T19:50:14.019Z,18.70
2019-06-20T19:52:48.470Z,18.50
2019-06-20T19:58:43.715Z,18.40
2019-06-20T20:01:18.077Z,18.30
2019-06-20T20:03:52.522Z,18.20
2019-06-20T20:06:26.895Z,18.20
2019-06-20T20:09:04.463Z,18.10
2019-06-20T20:11:48.463Z,18.00
2019-06-20T20:14:22.808Z,18.00
2019-06-20T20:16:57.027Z,17.90
2019-06-20T20:19:36.428Z,17.90
2019-06-20T20:22:18.156Z,17.80
2019-06-20T20:25:17.815Z,17.80
2019-06-20T20:28:07.774Z,17.70
2019-06-20T20:30:42.243Z,17.60
2019-06-20T20:33:16.547Z,17.50
2019-06-20T20:35:50.903Z,17.50
2019-06-20T20:38:25.147Z,17.40
2019-06-20T20:40:59.483Z,17.40
2019-06-20T20:43:33.744Z,17.40
2019-06-20T20:46:08.070Z,17.30
2019-06-20T20:48:42.278Z,17.10
2019-06-20T20:51:16.634Z,17.10
2019-06-20T20:53:50.919Z,17.10
2019-06-20T20:56:25.267Z,17.10
2019-06-20T20:59:00.167Z,17.00
2019-06-20T21:01:36.726Z,17.00
2019-06-20T21:04:22.423Z,17.00
2019-06-20T21:06:56.709Z,16.90
2019-06-20T21:09:30.937Z,16.90
2019-06-20T21:12:16.954Z,16.70
2019-06-20T21:14:51.332Z,16.70
2019-06-20T21:17:30.434Z,16.60
2019-06-20T21:20:07.263Z,16.60
2019-06-20T21:22:41.603Z,16.50
2019-06-20T21:25:20.042Z,16.40
2019-06-20T21:28:16.008Z,16.30
2019-06-20T21:30:50.377Z,16.40
2019-06-20T21:33:24.779Z,16.40
2019-06-20T21:36:08.347Z,16.40
2019-06-20T21:38:39.738Z,16.40
2019-06-20T21:41:14.147Z,16.40
2019-06-20T21:43:48.418Z,16.40
2019-06-20T21:46:22.862Z,16.40
2019-06-20T21:48:57.249Z,16.40
2019-06-20T21:51:31.559Z,16.40
2019-06-20T21:54:27.634Z,16.40
2019-06-20T21:57:02.076Z,16.40
2019-06-20T21:59:36.846Z,16.40
2019-06-20T22:02:11.170Z,16.40
2019-06-20T22:04:54.515Z,16.40
2019-06-20T22:07:22.458Z,16.50
2019-06-20T22:09:56.815Z,16.40
2019-06-20T22:12:31.230Z,16.30
2019-06-20T22:15:07.203Z,16.40
2019-06-20T22:17:41.480Z,16.40
2019-06-20T22:20:16.443Z,16.30
2019-06-20T22:22:52.768Z,16.30
2019-06-20T22:25:27.306Z,16.30
2019-06-20T22:28:01.702Z,16.30
2019-06-20T22:30:55.394Z,16.30
2019-06-20T22:33:42.534Z,16.30
2019-06-20T22:36:17.282Z,16.20
2019-06-20T22:38:51.474Z,16.20
2019-06-20T22:41:25.849Z,16.10
2019-06-20T22:44:00.230Z,16.10
2019-06-20T22:46:34.526Z,16.10
2019-06-20T22:49:11.321Z,16.10
2019-06-20T22:51:45.551Z,16.10
2019-06-20T22:54:19.935Z,16.20
2019-06-20T22:56:54.294Z,16.20
2019-06-20T22:59:28.674Z,16.30
2019-06-20T23:02:10.026Z,16.30
2019-06-20T23:04:51.966Z,16.40
2019-06-20T23:07:26.250Z,16.40
2019-06-20T23:10:10.790Z,16.40
2019-06-20T23:12:43.046Z,16.40
2019-06-20T23:15:17.798Z,16.40
2019-06-20T23:17:55.582Z,16.40
2019-06-20T23:20:29.960Z,16.50
2019-06-20T23:23:04.571Z,16.40
2019-06-20T23:25:40.483Z,16.40
2019-06-20T23:28:14.886Z,16.50
2019-06-20T23:30:49.157Z,16.50
2019-06-20T23:33:23.379Z,16.50
2019-06-20T23:35:57.751Z,16.50
2019-06-20T23:38:32.129Z,16.50
2019-06-20T23:41:05.911Z,16.50
2019-06-20T23:43:40.243Z,16.50
2019-06-20T23:46:14.514Z,16.50
2019-06-20T23:48:48.830Z,16.50
2019-06-20T23:51:25.501Z,16.60
2019-06-20T23:54:00.518Z,16.50
2019-06-20T23:56:34.861Z,16.50
2019-06-20T23:59:09.214Z,16.50
